Inez, KY

12:34 AM EST dna 01 Február, 2015 (GMT -0500)
Big Sandy Reg AP, Prestonsbur | Change Station
CLOSE
Current Station
Airport
Location: Big Sandy Reg AP, Prestonsbur,
Nad. výška:: 1220 ft
Najbližšie meteo stanice

Elev 1220 ft 37.75 °N, 82.64 °W | Updated 19 minutes ago

Zamračené
Zamračené
35 °F
Feels Like 35 °F
N
0
Vietor meniaci sa Vietor from Severný

Dnes
High -- | Low -- °F
--% Chance of Precip.
Yesterday
High -- | Low -- °F
Precip. -- in
7:34 AM 5:53 PM
Pribúdajúci mesiac, 2. fáza, 93% visible
Tlak 30.24 in
Viditeľnosť 10.0 mile
Oblačnost Zamračené 9000 ft
Rosný bod 17 °F
Vlhkosť 48%
Rainfall 0.00 in
Výška snehu Not available.
UV 0 out of 12
Pollen .10 out of 12
Air Quality Not available.
Flu Activity Not available.
METAR KSJS 010515Z AUTO 00000KT 10SM OVC090 02/M08 A3024 RMK AO2 T00151085

More Conditions Fewer Conditions

Tlak 30.24 in
Viditeľnosť 10.0 mile
Oblačnost Zamračené 9000 ft
Rosný bod 17 °F
Vlhkosť 48%
Rainfall 0.00 in
Výška snehu Not available.
UV 0 out of 12
Pollen .10 out of 12
Air Quality Not available.
Flu Activity Not available.
METAR KSJS 010515Z AUTO 00000KT 10SM OVC090 02/M08 A3024 RMK AO2 T00151085

More Conditions Fewer Conditions

10-Day Weather Forecast

Almanac

Astronómia

Feb. 01, 2015 Východ Západ
Aktuálny čas
Civil Twilight
Nautical Twilight
Astronomical Twilight
Mesiac
Length Of Visible Light
Dĺžka dňa
Tomorrow will be .
, % of the Moon is Illuminated

Today's Extremes

State Highs State Lows

Community

WunderPhotos

Upload Photos

1,792,316 photos uploaded!

WunderBlogs® & News

Nearby

Air Quality

  Air Quality AQ Index Pollutant
Not available.

Výska snehu

Station Depth Nad. výška:

Aktivita zemetrasenia

Mesto Distance Mag. Time & Date
Minimum magnitude displayed is 2.5.

Coastal Water Temperatures

Miesto Teplota

Najbližšie meteo stanice